createdAt,value
2017-09-19T00:01:34.107Z,13.30
2017-09-19T00:04:01.876Z,13.28
2017-09-19T00:06:29.517Z,13.29
2017-09-19T00:08:57.122Z,13.31
2017-09-19T00:11:24.801Z,13.34
2017-09-19T00:13:52.402Z,13.36
2017-09-19T00:16:20.028Z,13.36
2017-09-19T00:18:47.651Z,13.36
2017-09-19T00:21:15.286Z,13.36
2017-09-19T00:23:42.934Z,13.37
2017-09-19T00:26:10.610Z,13.35
2017-09-19T00:28:38.222Z,13.36
2017-09-19T00:31:05.863Z,13.28
2017-09-19T00:33:33.474Z,13.28
2017-09-19T00:36:01.251Z,13.28
2017-09-19T00:38:28.854Z,13.30
2017-09-19T00:40:57.528Z,13.28
2017-09-19T00:43:25.702Z,13.26
2017-09-19T00:45:53.436Z,13.25
2017-09-19T00:48:21.212Z,13.27
2017-09-19T00:50:48.950Z,13.24
2017-09-19T00:53:16.643Z,13.24
2017-09-19T00:55:44.256Z,13.25
2017-09-19T00:58:11.995Z,13.25
2017-09-19T01:00:39.738Z,13.28
2017-09-19T01:03:07.416Z,13.31
2017-09-19T01:05:35.094Z,13.30
2017-09-19T01:08:02.744Z,13.29
2017-09-19T01:10:30.359Z,13.28
2017-09-19T01:12:57.978Z,13.30
2017-09-19T01:15:25.594Z,13.27
2017-09-19T01:17:53.239Z,13.28
2017-09-19T01:20:20.834Z,13.29
2017-09-19T01:22:48.459Z,13.30
2017-09-19T01:25:16.038Z,13.24
2017-09-19T01:27:43.751Z,13.23
2017-09-19T01:30:11.369Z,13.27
2017-09-19T01:32:39.038Z,13.26
2017-09-19T01:35:06.663Z,13.28
2017-09-19T01:37:34.341Z,13.27
2017-09-19T01:40:01.939Z,13.28
2017-09-19T01:42:29.615Z,13.21
2017-09-19T01:44:57.259Z,13.21
2017-09-19T01:47:24.862Z,13.16
2017-09-19T01:49:52.507Z,13.15
2017-09-19T01:52:20.153Z,13.19
2017-09-19T01:54:47.776Z,13.19
2017-09-19T01:57:15.390Z,13.19
2017-09-19T01:59:43.040Z,13.19
2017-09-19T02:02:10.642Z,13.19
2017-09-19T02:04:38.348Z,13.21
2017-09-19T02:07:06.044Z,13.22
2017-09-19T02:09:33.689Z,13.24
2017-09-19T02:12:01.312Z,13.27
2017-09-19T02:14:28.968Z,13.29
2017-09-19T02:16:56.568Z,13.26
2017-09-19T02:19:24.233Z,13.19
2017-09-19T02:21:51.854Z,13.22
2017-09-19T02:24:19.462Z,13.19
2017-09-19T02:26:47.111Z,13.19
2017-09-19T02:29:14.711Z,13.18
2017-09-19T02:31:42.352Z,13.22
2017-09-19T02:34:09.967Z,13.22
2017-09-19T02:36:37.926Z,13.24
2017-09-19T02:39:06.168Z,13.22
2017-09-19T02:41:34.031Z,13.23
2017-09-19T02:44:01.842Z,13.22
2017-09-19T02:46:30.013Z,13.18
2017-09-19T02:48:57.982Z,13.20
2017-09-19T02:51:25.851Z,13.21
2017-09-19T02:53:53.615Z,13.18
2017-09-19T02:56:22.402Z,13.17
2017-09-19T02:58:50.470Z,13.19
2017-09-19T03:01:18.119Z,13.17
2017-09-19T03:03:45.730Z,13.17
2017-09-19T03:06:13.383Z,13.18
2017-09-19T03:08:40.991Z,13.18
2017-09-19T03:11:08.619Z,13.18
2017-09-19T03:13:36.259Z,13.15
2017-09-19T03:16:03.882Z,13.14
2017-09-19T03:18:31.495Z,13.15
2017-09-19T03:20:59.135Z,13.13
2017-09-19T03:23:26.763Z,13.15
2017-09-19T03:25:54.390Z,13.18
2017-09-19T03:28:21.995Z,13.17
2017-09-19T03:30:49.815Z,13.20
2017-09-19T03:33:18.104Z,13.21
2017-09-19T03:35:46.383Z,13.22
2017-09-19T03:38:14.104Z,13.23
2017-09-19T03:40:43.257Z,13.22
2017-09-19T03:43:11.676Z,13.15
2017-09-19T03:45:40.526Z,13.18
2017-09-19T03:48:08.258Z,13.19
2017-09-19T03:50:37.185Z,13.22
2017-09-19T03:53:06.977Z,13.23
2017-09-19T03:55:34.884Z,13.24
2017-09-19T03:58:02.746Z,13.24
2017-09-19T04:00:30.600Z,13.23
2017-09-19T04:02:58.572Z,13.24
2017-09-19T04:05:26.643Z,13.23
2017-09-19T04:07:57.483Z,13.22
2017-09-19T04:10:25.127Z,13.20
2017-09-19T04:12:52.755Z,13.19
2017-09-19T04:15:20.359Z,13.20
2017-09-19T04:17:48.106Z,13.22
2017-09-19T04:20:15.722Z,13.27
2017-09-19T04:22:43.347Z,13.29
2017-09-19T04:25:11.041Z,13.28
2017-09-19T04:27:38.640Z,13.29
2017-09-19T04:30:06.299Z,13.33
2017-09-19T04:32:33.931Z,13.32
2017-09-19T04:35:01.592Z,13.29
2017-09-19T04:37:29.215Z,13.25
2017-09-19T04:39:56.855Z,13.22
2017-09-19T04:42:24.473Z,13.21
2017-09-19T04:44:52.105Z,13.24
2017-09-19T04:47:19.715Z,13.25
2017-09-19T04:49:47.364Z,13.31
2017-09-19T04:52:15.015Z,13.28
2017-09-19T04:54:42.651Z,13.28
2017-09-19T04:57:10.269Z,13.31
2017-09-19T04:59:37.891Z,13.27
2017-09-19T05:02:05.492Z,13.28
2017-09-19T05:04:33.147Z,13.29
2017-09-19T05:07:00.756Z,13.26
2017-09-19T05:09:28.459Z,13.31
2017-09-19T05:11:56.991Z,13.21
2017-09-19T05:14:24.899Z,13.21
2017-09-19T05:16:53.123Z,13.18
2017-09-19T05:19:32.050Z,13.20
2017-09-19T05:22:01.304Z,13.17
2017-09-19T05:24:34.840Z,13.17
2017-09-19T05:27:02.511Z,13.18
2017-09-19T05:29:30.138Z,13.15
2017-09-19T05:31:57.833Z,13.15
2017-09-19T05:34:25.500Z,13.13
2017-09-19T05:36:53.134Z,13.16
2017-09-19T05:39:20.826Z,13.12
2017-09-19T05:41:48.588Z,13.13
2017-09-19T05:44:16.223Z,13.14
2017-09-19T05:46:43.903Z,13.12
2017-09-19T05:49:11.613Z,13.16
2017-09-19T05:51:39.401Z,13.12
2017-09-19T05:54:07.013Z,13.08
2017-09-19T05:56:34.671Z,13.09
2017-09-19T05:59:02.303Z,13.10
2017-09-19T06:01:29.979Z,13.11
2017-09-19T06:03:57.590Z,13.11
2017-09-19T06:06:25.266Z,13.12
2017-09-19T06:09:04.555Z,13.09
2017-09-19T06:11:32.224Z,13.12
2017-09-19T06:13:59.844Z,13.13
2017-09-19T06:16:27.542Z,13.14
2017-09-19T06:18:55.158Z,13.17
2017-09-19T06:21:22.817Z,13.22
2017-09-19T06:23:50.466Z,13.22
2017-09-19T06:26:18.332Z,13.26
2017-09-19T06:28:45.955Z,13.24
2017-09-19T06:31:13.632Z,13.22
2017-09-19T06:33:41.285Z,13.21
2017-09-19T06:36:09.082Z,13.21
2017-09-19T06:38:36.737Z,13.20
2017-09-19T06:41:04.377Z,13.21
2017-09-19T06:43:32.039Z,13.19
2017-09-19T06:45:59.710Z,13.23
2017-09-19T06:48:27.419Z,13.20
2017-09-19T06:50:55.075Z,13.21
2017-09-19T06:53:22.745Z,13.20
2017-09-19T06:55:50.398Z,13.24
2017-09-19T06:58:18.040Z,13.26
2017-09-19T07:00:45.748Z,13.23
2017-09-19T07:03:13.374Z,13.20
2017-09-19T07:05:41.025Z,13.17
2017-09-19T07:08:08.661Z,13.12
2017-09-19T07:10:36.302Z,13.11
2017-09-19T07:13:03.903Z,13.10
2017-09-19T07:15:31.592Z,13.13
2017-09-19T07:17:59.186Z,13.01
2017-09-19T07:20:26.826Z,12.94
2017-09-19T07:22:54.463Z,13.02
2017-09-19T07:25:22.151Z,13.08
2017-09-19T07:27:49.783Z,13.11
2017-09-19T07:30:17.473Z,13.16
2017-09-19T07:32:45.139Z,13.24
2017-09-19T07:35:12.782Z,13.28
2017-09-19T07:37:40.396Z,13.34
2017-09-19T07:40:08.090Z,13.37
2017-09-19T07:42:36.339Z,13.32
2017-09-19T07:45:04.010Z,13.34
2017-09-19T07:47:31.664Z,13.31
2017-09-19T07:49:59.350Z,13.31
2017-09-19T07:52:26.976Z,13.32
2017-09-19T07:54:54.635Z,13.33
2017-09-19T07:57:22.339Z,13.31
2017-09-19T07:59:50.050Z,13.36
2017-09-19T08:02:17.678Z,13.40
2017-09-19T08:04:45.407Z,13.40
2017-09-19T08:07:13.018Z,13.44
2017-09-19T08:09:40.699Z,13.42
2017-09-19T08:12:08.367Z,13.44
2017-09-19T08:14:35.986Z,13.40
2017-09-19T08:17:05.294Z,13.43
2017-09-19T08:19:32.942Z,13.44
2017-09-19T08:22:00.571Z,13.45
2017-09-19T08:24:28.180Z,13.42
2017-09-19T08:26:55.879Z,13.41
2017-09-19T08:29:23.508Z,13.39
2017-09-19T08:31:51.303Z,13.37
2017-09-19T08:34:18.917Z,13.39
2017-09-19T08:36:46.552Z,13.41
2017-09-19T08:39:14.160Z,13.44
2017-09-19T08:41:41.802Z,13.46
2017-09-19T08:44:09.399Z,13.47
2017-09-19T08:46:37.043Z,13.51
2017-09-19T08:49:04.653Z,13.52
2017-09-19T08:51:32.287Z,13.53
2017-09-19T08:53:59.894Z,13.54
2017-09-19T08:56:27.535Z,13.56
2017-09-19T08:58:55.138Z,13.54
2017-09-19T09:01:22.758Z,13.59
2017-09-19T09:03:50.362Z,13.69
2017-09-19T09:06:18.017Z,13.79
2017-09-19T09:08:45.622Z,13.81
2017-09-19T09:11:13.267Z,13.77
2017-09-19T09:13:40.866Z,13.76
2017-09-19T09:16:08.506Z,13.82
2017-09-19T09:18:36.110Z,13.79
2017-09-19T09:21:03.727Z,13.82
2017-09-19T09:23:31.428Z,13.84
2017-09-19T09:25:59.039Z,13.88
2017-09-19T09:28:26.671Z,13.83
2017-09-19T09:30:54.255Z,13.87
2017-09-19T09:33:21.895Z,13.86
2017-09-19T09:35:49.511Z,13.85
2017-09-19T09:38:17.322Z,13.80
2017-09-19T09:40:44.975Z,13.77
2017-09-19T09:43:12.639Z,13.79
2017-09-19T09:45:40.287Z,13.86
2017-09-19T09:48:07.893Z,13.95
2017-09-19T09:50:35.524Z,14.13
2017-09-19T09:53:03.179Z,14.34
2017-09-19T09:55:30.806Z,14.49
2017-09-19T09:57:58.442Z,14.70
2017-09-19T10:00:26.075Z,14.84
2017-09-19T10:02:53.680Z,14.93
2017-09-19T10:05:21.339Z,14.88
2017-09-19T10:07:48.949Z,14.79
2017-09-19T10:10:16.598Z,14.67
2017-09-19T10:12:44.206Z,14.57
2017-09-19T10:15:11.854Z,14.48
2017-09-19T10:17:39.446Z,14.38
2017-09-19T10:20:07.122Z,14.30
2017-09-19T10:22:34.729Z,14.23
2017-09-19T10:25:02.383Z,14.14
2017-09-19T10:27:29.989Z,14.14
2017-09-19T10:29:57.618Z,14.15
2017-09-19T10:32:25.227Z,14.07
2017-09-19T10:34:52.875Z,14.04
2017-09-19T10:37:20.617Z,14.06
2017-09-19T10:39:48.242Z,14.06
2017-09-19T10:42:15.851Z,14.05
2017-09-19T10:44:43.588Z,14.11
2017-09-19T10:47:11.180Z,14.10
2017-09-19T10:49:38.827Z,14.15
2017-09-19T10:52:06.470Z,14.23
2017-09-19T10:54:34.169Z,14.32
2017-09-19T10:57:01.805Z,14.56
2017-09-19T10:59:29.423Z,15.01
2017-09-19T11:01:57.050Z,15.20
2017-09-19T11:04:24.648Z,15.27
2017-09-19T11:06:52.281Z,15.37
2017-09-19T11:09:19.862Z,15.36
2017-09-19T11:11:47.517Z,15.82
2017-09-19T11:14:15.103Z,16.24
2017-09-19T11:16:42.733Z,16.46
2017-09-19T11:19:10.351Z,16.57
2017-09-19T11:21:37.983Z,16.44
2017-09-19T11:24:05.606Z,16.23
2017-09-19T11:26:33.238Z,15.97
2017-09-19T11:29:00.844Z,15.63
2017-09-19T11:31:28.483Z,15.40
2017-09-19T11:33:56.091Z,15.32
2017-09-19T11:36:23.777Z,15.15
2017-09-19T11:38:51.390Z,15.15
2017-09-19T11:41:19.030Z,15.14
2017-09-19T11:43:46.631Z,15.04
2017-09-19T11:46:14.278Z,15.01
2017-09-19T11:48:41.890Z,14.95
2017-09-19T11:51:09.535Z,14.97
2017-09-19T11:53:37.155Z,14.91
2017-09-19T11:56:04.782Z,14.87
2017-09-19T11:58:32.395Z,14.86
2017-09-19T12:01:00.046Z,14.84
2017-09-19T12:03:27.656Z,14.85
2017-09-19T12:05:55.268Z,14.80
2017-09-19T12:08:22.900Z,14.80
2017-09-19T12:10:50.495Z,14.84
2017-09-19T12:13:18.243Z,14.85
2017-09-19T12:15:45.919Z,14.89
2017-09-19T12:18:13.534Z,14.89
2017-09-19T12:20:41.195Z,14.90
2017-09-19T12:23:08.812Z,14.85
2017-09-19T12:25:36.438Z,14.83
2017-09-19T12:28:04.067Z,14.82
2017-09-19T12:30:31.686Z,14.84
2017-09-19T12:32:59.319Z,14.94
2017-09-19T12:35:26.935Z,14.99
2017-09-19T12:37:54.560Z,15.02
2017-09-19T12:40:22.172Z,15.05
2017-09-19T12:42:49.827Z,15.11
2017-09-19T12:45:17.459Z,15.06
2017-09-19T12:47:45.099Z,15.10
2017-09-19T12:50:12.725Z,15.12
2017-09-19T12:52:40.401Z,15.15
2017-09-19T12:55:08.047Z,15.15
2017-09-19T12:57:35.694Z,15.15
2017-09-19T13:00:03.294Z,15.08
2017-09-19T13:02:30.954Z,15.04
2017-09-19T13:04:58.575Z,15.13
2017-09-19T13:07:26.211Z,15.13
2017-09-19T13:09:53.815Z,15.16
2017-09-19T13:12:21.455Z,15.29
2017-09-19T13:14:49.061Z,15.93
2017-09-19T13:17:16.722Z,16.71
2017-09-19T13:19:44.379Z,17.31
2017-09-19T13:22:11.976Z,17.84
2017-09-19T13:24:39.616Z,17.88
2017-09-19T13:27:07.230Z,17.60
2017-09-19T13:29:34.927Z,17.13
2017-09-19T13:32:14.056Z,16.91
2017-09-19T13:34:41.711Z,16.63
2017-09-19T13:37:09.315Z,16.32
2017-09-19T13:39:36.952Z,16.15
2017-09-19T13:42:04.558Z,15.95
2017-09-19T13:44:32.206Z,15.73
2017-09-19T13:46:59.798Z,15.62
2017-09-19T13:49:27.462Z,15.55
2017-09-19T13:51:55.043Z,15.50
2017-09-19T13:54:22.648Z,15.47
2017-09-19T13:56:50.270Z,15.47
2017-09-19T13:59:17.891Z,15.47
2017-09-19T14:01:45.547Z,15.53
2017-09-19T14:04:13.249Z,15.62
2017-09-19T14:06:40.883Z,15.78
2017-09-19T14:09:08.542Z,16.00
2017-09-19T14:11:36.208Z,16.34
2017-09-19T14:14:03.806Z,17.03
2017-09-19T14:16:31.409Z,17.61
2017-09-19T14:18:59.035Z,17.96
2017-09-19T14:21:26.646Z,18.07
2017-09-19T14:23:54.340Z,18.16
2017-09-19T14:26:21.953Z,18.14
2017-09-19T14:28:49.588Z,17.72
2017-09-19T14:31:17.193Z,17.25
2017-09-19T14:33:44.814Z,16.92
2017-09-19T14:36:12.426Z,16.82
2017-09-19T14:38:40.078Z,17.15
2017-09-19T14:41:07.683Z,17.25
2017-09-19T14:43:35.311Z,16.99
2017-09-19T14:46:02.940Z,16.85
2017-09-19T14:48:30.570Z,16.75
2017-09-19T14:50:58.168Z,16.59
2017-09-19T14:53:25.821Z,16.44
2017-09-19T14:55:53.427Z,16.31
2017-09-19T14:58:21.034Z,16.25
2017-09-19T15:00:48.662Z,16.23
2017-09-19T15:03:16.270Z,16.14
2017-09-19T15:05:43.903Z,16.00
2017-09-19T15:08:11.506Z,15.93
2017-09-19T15:10:39.273Z,15.96
2017-09-19T15:13:06.887Z,15.92
2017-09-19T15:15:34.532Z,15.87
2017-09-19T15:18:02.138Z,16.13
2017-09-19T15:20:29.796Z,16.09
2017-09-19T15:22:57.422Z,16.00
2017-09-19T15:25:25.065Z,15.96
2017-09-19T15:27:52.764Z,16.35
2017-09-19T15:30:20.522Z,16.73
2017-09-19T15:32:48.122Z,17.10
2017-09-19T15:35:15.770Z,17.35
2017-09-19T15:37:43.392Z,17.47
2017-09-19T15:40:10.984Z,17.49
2017-09-19T15:42:38.632Z,17.61
2017-09-19T15:45:06.267Z,17.57
2017-09-19T15:47:33.950Z,17.81
2017-09-19T15:50:01.566Z,17.67
2017-09-19T15:52:29.226Z,17.76
2017-09-19T15:54:56.861Z,17.86
2017-09-19T15:57:24.490Z,18.05
2017-09-19T15:59:52.094Z,18.16
2017-09-19T16:02:19.714Z,18.31
2017-09-19T16:04:47.318Z,18.16
2017-09-19T16:07:14.955Z,17.86
2017-09-19T16:09:42.582Z,17.93
2017-09-19T16:12:10.209Z,17.64
2017-09-19T16:14:37.808Z,17.29
2017-09-19T16:17:05.463Z,17.04
2017-09-19T16:19:33.130Z,16.85
2017-09-19T16:22:00.836Z,16.79
2017-09-19T16:24:28.456Z,16.73
2017-09-19T16:26:56.083Z,16.50
2017-09-19T16:29:23.730Z,16.36
2017-09-19T16:31:51.383Z,16.31
2017-09-19T16:34:19.068Z,16.25
2017-09-19T16:36:46.706Z,16.43
2017-09-19T16:39:14.338Z,16.73
2017-09-19T16:41:42.060Z,16.96
2017-09-19T16:44:09.670Z,17.10
2017-09-19T16:46:37.270Z,17.20
2017-09-19T16:49:04.898Z,17.20
2017-09-19T16:51:32.543Z,16.90
2017-09-19T16:54:00.192Z,16.78
2017-09-19T16:56:27.807Z,16.68
2017-09-19T16:58:55.457Z,16.65
2017-09-19T17:01:23.074Z,16.64
2017-09-19T17:03:50.699Z,16.60
2017-09-19T17:06:18.305Z,16.47
2017-09-19T17:08:45.967Z,16.38
2017-09-19T17:11:13.577Z,16.32
2017-09-19T17:13:41.203Z,16.25
2017-09-19T17:16:08.826Z,16.20
2017-09-19T17:18:36.469Z,16.14
2017-09-19T17:21:04.085Z,16.10
2017-09-19T17:23:31.722Z,16.09
2017-09-19T17:25:59.326Z,16.05
2017-09-19T17:28:27.049Z,16.04
2017-09-19T17:30:54.718Z,16.03
2017-09-19T17:33:22.364Z,16.00
2017-09-19T17:35:49.981Z,15.95
2017-09-19T17:38:17.742Z,15.87
2017-09-19T17:40:45.402Z,15.83
2017-09-19T17:43:13.047Z,15.79
2017-09-19T17:45:40.673Z,15.75
2017-09-19T17:48:08.336Z,15.68
2017-09-19T17:50:36.039Z,15.63
2017-09-19T17:53:03.683Z,15.59
2017-09-19T17:55:31.372Z,15.60
2017-09-19T17:57:59.017Z,15.58
2017-09-19T18:00:26.660Z,15.54
2017-09-19T18:02:54.371Z,15.48
2017-09-19T18:05:22.031Z,15.51
2017-09-19T18:07:50.215Z,15.63
2017-09-19T18:10:17.875Z,15.62
2017-09-19T18:12:45.492Z,15.56
2017-09-19T18:15:13.152Z,15.49
2017-09-19T18:17:41.127Z,15.43
2017-09-19T18:20:08.831Z,15.37
2017-09-19T18:22:37.242Z,15.28
2017-09-19T18:25:04.908Z,15.21
2017-09-19T18:27:32.676Z,15.16
2017-09-19T18:30:00.335Z,15.07
2017-09-19T18:32:28.092Z,14.98
2017-09-19T18:34:55.800Z,14.86
2017-09-19T18:37:23.426Z,14.76
2017-09-19T18:39:51.087Z,14.72
2017-09-19T18:42:18.774Z,14.70
2017-09-19T18:44:46.428Z,14.65
2017-09-19T18:47:14.035Z,14.65
2017-09-19T18:49:41.675Z,14.63
2017-09-19T18:52:09.299Z,14.58
2017-09-19T18:54:36.973Z,14.47
2017-09-19T18:57:04.627Z,14.41
2017-09-19T18:59:32.286Z,14.38
2017-09-19T19:01:59.917Z,14.39
2017-09-19T19:04:27.602Z,14.35
2017-09-19T19:06:55.400Z,14.34
2017-09-19T19:09:23.052Z,14.33
2017-09-19T19:11:50.708Z,14.34
2017-09-19T19:14:18.559Z,14.32
2017-09-19T19:16:46.162Z,14.22
2017-09-19T19:19:13.820Z,14.12
2017-09-19T19:21:41.438Z,14.08
2017-09-19T19:24:09.247Z,14.13
2017-09-19T19:26:36.880Z,14.15
2017-09-19T19:29:04.915Z,14.15
2017-09-19T19:31:32.617Z,14.08
2017-09-19T19:34:00.353Z,14.05
2017-09-19T19:36:28.002Z,14.06
2017-09-19T19:38:55.723Z,13.97
2017-09-19T19:41:23.343Z,13.94
2017-09-19T19:43:51.067Z,13.69
2017-09-19T19:46:18.715Z,13.64
2017-09-19T19:48:46.520Z,13.46
2017-09-19T19:51:14.159Z,13.36
2017-09-19T19:53:41.800Z,13.33
2017-09-19T19:56:09.447Z,13.36
2017-09-19T19:58:37.161Z,13.34
2017-09-19T20:01:04.792Z,13.36
2017-09-19T20:03:32.438Z,13.32
2017-09-19T20:06:00.103Z,13.32
2017-09-19T20:08:27.751Z,13.37
2017-09-19T20:10:55.407Z,13.33
2017-09-19T20:13:23.321Z,13.36
2017-09-19T20:15:50.982Z,13.38
2017-09-19T20:18:18.640Z,13.40
2017-09-19T20:20:46.312Z,13.39
2017-09-19T20:23:14.112Z,13.38
2017-09-19T20:25:41.730Z,13.47
2017-09-19T20:28:09.410Z,13.47
2017-09-19T20:30:37.036Z,13.46
2017-09-19T20:33:04.695Z,13.45
2017-09-19T20:35:32.403Z,13.47
2017-09-19T20:38:00.110Z,13.47
2017-09-19T20:40:27.786Z,13.42
2017-09-19T20:42:55.419Z,13.37
2017-09-19T20:45:23.061Z,13.33
2017-09-19T20:47:50.714Z,13.36
2017-09-19T20:50:18.385Z,13.40
2017-09-19T20:52:46.007Z,13.34
2017-09-19T20:55:13.613Z,13.26
2017-09-19T20:57:41.256Z,13.06
2017-09-19T21:00:09.003Z,12.96
2017-09-19T21:02:36.613Z,12.96
2017-09-19T21:05:10.008Z,12.99
2017-09-19T21:07:43.203Z,13.07
2017-09-19T21:10:16.355Z,13.09
2017-09-19T21:12:49.594Z,13.09
2017-09-19T21:15:22.871Z,13.11
2017-09-19T21:17:56.072Z,13.08
2017-09-19T21:20:23.175Z,13.06
2017-09-19T21:22:50.850Z,13.05
2017-09-19T21:25:18.592Z,13.08
2017-09-19T21:27:46.198Z,13.13
2017-09-19T21:30:13.865Z,13.14
2017-09-19T21:32:41.484Z,13.06
2017-09-19T21:35:09.256Z,12.98
2017-09-19T21:37:36.874Z,12.98
2017-09-19T21:40:04.556Z,12.98
2017-09-19T21:42:32.200Z,12.96
2017-09-19T21:44:59.835Z,12.79
2017-09-19T21:47:27.571Z,12.78
2017-09-19T21:49:55.200Z,12.83
2017-09-19T21:52:22.824Z,12.81
2017-09-19T21:54:50.466Z,12.81
2017-09-19T21:57:18.090Z,12.79
2017-09-19T21:59:45.730Z,12.74
2017-09-19T22:02:13.371Z,12.67
2017-09-19T22:04:41.010Z,12.54
2017-09-19T22:07:08.672Z,12.42
2017-09-19T22:09:36.331Z,12.44
2017-09-19T22:12:03.938Z,12.31
2017-09-19T22:14:31.563Z,12.26
2017-09-19T22:16:59.194Z,12.24
2017-09-19T22:19:26.899Z,12.24
2017-09-19T22:21:54.514Z,12.27
2017-09-19T22:24:22.154Z,12.31
2017-09-19T22:26:49.773Z,12.22
2017-09-19T22:29:17.391Z,12.15
2017-09-19T22:31:45.022Z,12.11
2017-09-19T22:34:12.637Z,12.05
2017-09-19T22:36:40.274Z,12.00
2017-09-19T22:39:07.885Z,11.93
2017-09-19T22:41:35.527Z,11.89
2017-09-19T22:44:03.130Z,11.84
2017-09-19T22:46:30.765Z,11.94
2017-09-19T22:48:58.416Z,11.91
2017-09-19T22:51:26.033Z,11.89
2017-09-19T22:53:53.684Z,11.93
2017-09-19T22:56:21.295Z,12.02
2017-09-19T22:58:49.038Z,12.07
2017-09-19T23:01:16.651Z,12.06
2017-09-19T23:03:44.474Z,12.07
2017-09-19T23:06:12.095Z,12.02
2017-09-19T23:08:39.718Z,12.03
2017-09-19T23:11:07.406Z,11.94
2017-09-19T23:13:35.004Z,11.86
2017-09-19T23:16:02.646Z,11.85
2017-09-19T23:18:30.250Z,11.87
2017-09-19T23:20:57.880Z,11.87
2017-09-19T23:23:25.607Z,11.83
2017-09-19T23:25:53.242Z,11.81
2017-09-19T23:28:20.846Z,11.76
2017-09-19T23:30:48.478Z,11.75
2017-09-19T23:33:16.094Z,11.71
2017-09-19T23:35:43.713Z,11.64
2017-09-19T23:38:11.319Z,11.54
2017-09-19T23:40:39.114Z,11.53
2017-09-19T23:43:06.719Z,11.51
2017-09-19T23:45:34.348Z,11.45
2017-09-19T23:48:01.979Z,11.43
2017-09-19T23:50:29.609Z,11.47
2017-09-19T23:52:57.307Z,11.49
2017-09-19T23:55:24.930Z,11.55
2017-09-19T23:57:52.529Z,11.65
